Погода Гервятына 2 недели

Гродненская область, Белоруссия

27 мая-08 июня
  • 27мая
    Сегодня
    +13°
    +26°
    Небольшая облачность
    ВремяПогодаТемператураВлажностьДавлениеВетер, м/сВероятность осадков
    00:00Практически безоблачно+16°C64 %747 мм2.5 м/с2 %
    03:00Ясно и безоблачно+14°C64 %747 мм2.1 м/с2 %
    06:00Ясно и безоблачно+14°C68 %747 мм0.9 м/с2 %
    09:00Небольшая облачность+21°C45 %747 мм1.1 м/с2 %
    12:00Облачно с прояснениями+25°C36 %747 мм3.1 м/с2 %
    15:00Небольшая облачность+26°C35 %746 мм3.0 м/с2 %
    18:00Ясно и безоблачно+25°C37 %745 мм2.8 м/с2 %
    21:00Ясно и безоблачно+21°C57 %744 мм1.9 м/с2 %
  • 28мая
    Вторник
    +14°
    +26°
    Облачно с прояснениями
    ВремяПогодаТемператураВлажностьДавлениеВетер, м/сВероятность осадков
    00:00Ясно и безоблачно+16°C70 %744 мм1.8 м/с2 %
    03:00Ясно и безоблачно+15°C72 %744 мм2.3 м/с2 %
    06:00Ясно и безоблачно+14°C77 %744 мм2.2 м/с2 %
    09:00Ясно и безоблачно+21°C59 %744 мм2.0 м/с2 %
    12:00Практически безоблачно+25°C37 %744 мм3.7 м/с2 %
    15:00Облачно с прояснениями+26°C37 %743 мм3.6 м/с17 %
    18:00Небольшая облачность+25°C35 %742 мм2.4 м/с23 %
    21:00Ясно и безоблачно+21°C56 %741 мм3.6 м/с7 %
  • 29мая
    Среда
    +14°
    +27°
    Практически безоблачно
    ВремяПогодаТемператураВлажностьДавлениеВетер, м/сВероятность осадков
    00:00Облачно с прояснениями+17°C77 %741 мм2.6 м/с2 %
    03:00Ясно и безоблачно+15°C76 %740 мм2.9 м/с2 %
    06:00Ясно и безоблачно+15°C78 %740 мм2.3 м/с2 %
    09:00Ясно и безоблачно+21°C59 %740 мм1.7 м/с2 %
    12:00Практически безоблачно+26°C26 %740 мм4.2 м/с4 %
    15:00Практически безоблачно+26°C26 %739 мм4.2 м/с19 %
    18:00Ясно и безоблачно+25°C27 %738 мм4.1 м/с15 %
    21:00Ясно и безоблачно+21°C42 %738 мм2.5 м/с5 %
  • 30мая
    Четверг
    +14°
    +27°
    Облачно с прояснениями
    ВремяПогодаТемператураВлажностьДавлениеВетер, м/сВероятность осадков
    00:00Ясно и безоблачно+17°C52 %737 мм2.2 м/с2 %
    03:00Ясно и безоблачно+15°C56 %737 мм2.1 м/с2 %
    06:00Облачно с прояснениями+15°C63 %736 мм2.0 м/с2 %
    09:00Облачно с прояснениями+20°C52 %737 мм1.5 м/с3 %
    12:00Облачно с прояснениями+25°C35 %737 мм3.8 м/с21 %
    15:00Облачно с прояснениями+26°C34 %736 мм4.2 м/с26 %
    18:00Практически безоблачно+26°C33 %735 мм3.8 м/с22 %
    21:00Практически безоблачно+22°C46 %736 мм3.9 м/с4 %
Мы используем cookies
Соглашаюсь